KBOK/BOK METAR and TAF weather

Enter ICAO airport designator
Station Type Date Time Source
KBOK METAR 2018/04/21 10:56 UTC NOAA

KBOK 211056Z AUTO 00000KT 10SM CLR 06/04 A3033 RMK AO2 SLP289 T00560039


Station Type Date Time Source
KBOK Decoded METAR 2018/04/21 10:56 UTC NOAA

Brookings, Brookings Airport, OR, United States (KBOK) 42-04-28N 124-17-24W
Apr 21, 2018 - 06:56 AM EDT / 2018.04.21 1056 UTC
Wind: Calm:0
Visibility: 10 mile(s):0
Sky conditions: clear
Temperature: 42.1 F (5.6 C)
Dew Point: 39.0 F (3.9 C)
Relative Humidity: 88%
Pressure (altimeter): 30.33 in. Hg (1027 hPa)
ob: KBOK 211056Z AUTO 00000KT 10SM CLR 06/04 A3033 RMK AO2 SLP289 T00560039
cycle: 11

Station Type Date Time Source
KBOK TAF UTC NOAA

Error!


Example: see airport list